sensor_id;sensor_type;location;lat;lon;timestamp;temperature;humidity
728;DHT22;347;48.780;9.158;2023-12-20T00:02:18;8.00;32.80
728;DHT22;347;48.780;9.158;2023-12-20T00:04:44;8.00;32.80
728;DHT22;347;48.780;9.158;2023-12-20T00:07:10;8.00;33.00
728;DHT22;347;48.780;9.158;2023-12-20T00:09:35;8.00;32.90
728;DHT22;347;48.780;9.158;2023-12-20T00:12:01;8.10;32.20
728;DHT22;347;48.780;9.158;2023-12-20T00:14:27;8.30;32.30
728;DHT22;347;48.780;9.158;2023-12-20T00:16:52;8.30;32.00
728;DHT22;347;48.780;9.158;2023-12-20T00:19:18;8.30;32.00
728;DHT22;347;48.780;9.158;2023-12-20T00:21:43;8.30;31.80
728;DHT22;347;48.780;9.158;2023-12-20T00:24:09;8.40;32.00
728;DHT22;347;48.780;9.158;2023-12-20T00:26:34;8.40;32.20
728;DHT22;347;48.780;9.158;2023-12-20T00:29:00;8.40;32.40
728;DHT22;347;48.780;9.158;2023-12-20T00:31:26;8.40;33.10
728;DHT22;347;48.780;9.158;2023-12-20T00:33:51;8.40;33.80
728;DHT22;347;48.780;9.158;2023-12-20T00:36:17;8.40;33.70
728;DHT22;347;48.780;9.158;2023-12-20T00:38:43;8.40;34.30
728;DHT22;347;48.780;9.158;2023-12-20T00:41:09;8.40;34.40
728;DHT22;347;48.780;9.158;2023-12-20T00:43:34;8.40;34.90
728;DHT22;347;48.780;9.158;2023-12-20T00:46:00;8.40;34.90
728;DHT22;347;48.780;9.158;2023-12-20T00:48:26;8.40;35.10
728;DHT22;347;48.780;9.158;2023-12-20T00:50:57;8.30;35.40
728;DHT22;347;48.780;9.158;2023-12-20T00:53:22;8.30;36.10
728;DHT22;347;48.780;9.158;2023-12-20T00:55:48;8.40;35.90
728;DHT22;347;48.780;9.158;2023-12-20T00:58:15;8.40;36.20
728;DHT22;347;48.780;9.158;2023-12-20T01:00:41;8.30;36.90
728;DHT22;347;48.780;9.158;2023-12-20T01:03:08;8.20;37.40
728;DHT22;347;48.780;9.158;2023-12-20T01:05:34;8.30;37.30
728;DHT22;347;48.780;9.158;2023-12-20T01:07:59;8.20;37.90
728;DHT22;347;48.780;9.158;2023-12-20T01:10:25;8.30;38.70
728;DHT22;347;48.780;9.158;2023-12-20T01:12:53;8.40;38.30
728;DHT22;347;48.780;9.158;2023-12-20T01:15:19;8.50;38.70
728;DHT22;347;48.780;9.158;2023-12-20T01:17:44;8.60;38.20
728;DHT22;347;48.780;9.158;2023-12-20T01:20:10;8.70;38.10
728;DHT22;347;48.780;9.158;2023-12-20T01:22:36;8.70;38.50
728;DHT22;347;48.780;9.158;2023-12-20T01:25:02;8.90;38.50
728;DHT22;347;48.780;9.158;2023-12-20T01:27:28;9.10;38.10
728;DHT22;347;48.780;9.158;2023-12-20T01:29:54;9.10;36.70
728;DHT22;347;48.780;9.158;2023-12-20T01:32:20;8.90;36.40
728;DHT22;347;48.780;9.158;2023-12-20T01:34:45;9.00;37.70
728;DHT22;347;48.780;9.158;2023-12-20T01:37:11;9.10;37.60
728;DHT22;347;48.780;9.158;2023-12-20T01:39:37;9.10;37.40
728;DHT22;347;48.780;9.158;2023-12-20T01:42:02;9.10;37.00
728;DHT22;347;48.780;9.158;2023-12-20T01:44:28;9.10;37.20
728;DHT22;347;48.780;9.158;2023-12-20T01:46:54;9.20;37.10
728;DHT22;347;48.780;9.158;2023-12-20T01:49:20;9.30;36.50
728;DHT22;347;48.780;9.158;2023-12-20T01:51:46;9.10;36.70
728;DHT22;347;48.780;9.158;2023-12-20T01:54:12;9.20;37.10
728;DHT22;347;48.780;9.158;2023-12-20T01:56:39;9.20;36.90
728;DHT22;347;48.780;9.158;2023-12-20T01:59:06;9.20;36.20
728;DHT22;347;48.780;9.158;2023-12-20T02:01:33;9.20;36.80
728;DHT22;347;48.780;9.158;2023-12-20T02:03:59;9.20;37.00
728;DHT22;347;48.780;9.158;2023-12-20T02:06:29;9.30;37.00
728;DHT22;347;48.780;9.158;2023-12-20T02:08:57;9.40;36.30
728;DHT22;347;48.780;9.158;2023-12-20T02:11:23;9.50;35.80
728;DHT22;347;48.780;9.158;2023-12-20T02:13:48;9.60;35.40
728;DHT22;347;48.780;9.158;2023-12-20T02:16:14;9.60;35.10
728;DHT22;347;48.780;9.158;2023-12-20T02:18:40;9.60;35.10
728;DHT22;347;48.780;9.158;2023-12-20T02:21:09;9.60;35.10
728;DHT22;347;48.780;9.158;2023-12-20T02:23:35;9.60;35.00
728;DHT22;347;48.780;9.158;2023-12-20T02:26:00;9.60;35.00
728;DHT22;347;48.780;9.158;2023-12-20T02:28:26;9.70;34.90
728;DHT22;347;48.780;9.158;2023-12-20T02:30:53;9.70;35.00
728;DHT22;347;48.780;9.158;2023-12-20T02:33:18;9.60;35.30
728;DHT22;347;48.780;9.158;2023-12-20T02:35:44;9.50;34.50
728;DHT22;347;48.780;9.158;2023-12-20T02:38:09;9.40;35.40
728;DHT22;347;48.780;9.158;2023-12-20T02:40:35;9.40;36.30
728;DHT22;347;48.780;9.158;2023-12-20T02:43:01;9.40;36.50
728;DHT22;347;48.780;9.158;2023-12-20T02:45:27;9.40;36.70
728;DHT22;347;48.780;9.158;2023-12-20T02:47:52;9.50;36.70
728;DHT22;347;48.780;9.158;2023-12-20T02:50:18;9.60;36.60
728;DHT22;347;48.780;9.158;2023-12-20T02:52:46;9.60;36.50
728;DHT22;347;48.780;9.158;2023-12-20T02:55:12;9.70;36.40
728;DHT22;347;48.780;9.158;2023-12-20T02:57:38;9.70;36.20
728;DHT22;347;48.780;9.158;2023-12-20T03:00:08;9.70;36.00
728;DHT22;347;48.780;9.158;2023-12-20T03:02:34;9.70;36.10
728;DHT22;347;48.780;9.158;2023-12-20T03:05:00;9.70;36.20
728;DHT22;347;48.780;9.158;2023-12-20T03:07:26;9.70;36.30
728;DHT22;347;48.780;9.158;2023-12-20T03:09:51;9.70;36.40
728;DHT22;347;48.780;9.158;2023-12-20T03:12:17;9.70;36.50
728;DHT22;347;48.780;9.158;2023-12-20T03:14:43;9.70;36.50
728;DHT22;347;48.780;9.158;2023-12-20T03:17:09;9.70;36.50
728;DHT22;347;48.780;9.158;2023-12-20T03:19:35;9.60;36.60
728;DHT22;347;48.780;9.158;2023-12-20T03:22:01;9.70;36.50
728;DHT22;347;48.780;9.158;2023-12-20T03:24:27;9.60;36.30
728;DHT22;347;48.780;9.158;2023-12-20T03:26:53;9.60;37.20
728;DHT22;347;48.780;9.158;2023-12-20T03:29:18;9.60;37.00
728;DHT22;347;48.780;9.158;2023-12-20T03:31:44;9.60;37.00
728;DHT22;347;48.780;9.158;2023-12-20T03:34:09;9.60;36.50
728;DHT22;347;48.780;9.158;2023-12-20T03:36:36;9.40;36.00
728;DHT22;347;48.780;9.158;2023-12-20T03:39:01;9.10;36.00
728;DHT22;347;48.780;9.158;2023-12-20T03:41:27;8.90;36.70
728;DHT22;347;48.780;9.158;2023-12-20T03:43:52;8.80;38.40
728;DHT22;347;48.780;9.158;2023-12-20T03:46:18;8.90;37.50
728;DHT22;347;48.780;9.158;2023-12-20T03:48:43;9.10;37.10
728;DHT22;347;48.780;9.158;2023-12-20T03:51:09;9.20;36.90
728;DHT22;347;48.780;9.158;2023-12-20T03:53:35;9.30;36.20
728;DHT22;347;48.780;9.158;2023-12-20T03:56:00;9.40;35.50
728;DHT22;347;48.780;9.158;2023-12-20T03:58:26;9.30;34.80
728;DHT22;347;48.780;9.158;2023-12-20T04:00:52;9.40;34.50
728;DHT22;347;48.780;9.158;2023-12-20T04:03:17;9.40;34.10
728;DHT22;347;48.780;9.158;2023-12-20T04:05:43;9.40;34.30
728;DHT22;347;48.780;9.158;2023-12-20T04:08:09;9.40;34.10
728;DHT22;347;48.780;9.158;2023-12-20T04:10:35;9.20;34.00
728;DHT22;347;48.780;9.158;2023-12-20T04:13:00;9.00;35.80
728;DHT22;347;48.780;9.158;2023-12-20T04:15:26;9.00;35.20
728;DHT22;347;48.780;9.158;2023-12-20T04:17:51;9.00;35.80
728;DHT22;347;48.780;9.158;2023-12-20T04:20:17;8.80;35.60
728;DHT22;347;48.780;9.158;2023-12-20T04:22:43;8.80;35.60
728;DHT22;347;48.780;9.158;2023-12-20T04:25:08;8.90;36.40
728;DHT22;347;48.780;9.158;2023-12-20T04:27:34;9.10;35.80
728;DHT22;347;48.780;9.158;2023-12-20T04:29:59;9.20;35.70
728;DHT22;347;48.780;9.158;2023-12-20T04:32:25;9.20;33.80
728;DHT22;347;48.780;9.158;2023-12-20T04:34:51;8.90;33.80
728;DHT22;347;48.780;9.158;2023-12-20T04:37:16;8.70;35.10
728;DHT22;347;48.780;9.158;2023-12-20T04:39:42;8.80;35.10
728;DHT22;347;48.780;9.158;2023-12-20T04:42:08;8.50;35.30
728;DHT22;347;48.780;9.158;2023-12-20T04:44:33;8.60;36.20
728;DHT22;347;48.780;9.158;2023-12-20T04:46:59;8.70;35.70
728;DHT22;347;48.780;9.158;2023-12-20T04:49:25;8.90;36.20
728;DHT22;347;48.780;9.158;2023-12-20T04:51:51;9.10;35.70
728;DHT22;347;48.780;9.158;2023-12-20T04:54:16;9.10;34.50
728;DHT22;347;48.780;9.158;2023-12-20T04:56:42;9.00;33.90
728;DHT22;347;48.780;9.158;2023-12-20T04:59:08;9.00;34.20
728;DHT22;347;48.780;9.158;2023-12-20T05:01:33;9.10;33.60
728;DHT22;347;48.780;9.158;2023-12-20T05:03:59;9.10;32.90
728;DHT22;347;48.780;9.158;2023-12-20T05:06:25;8.90;32.40
728;DHT22;347;48.780;9.158;2023-12-20T05:08:50;8.70;34.40
728;DHT22;347;48.780;9.158;2023-12-20T05:11:16;8.60;35.20
728;DHT22;347;48.780;9.158;2023-12-20T05:13:42;8.70;35.90
728;DHT22;347;48.780;9.158;2023-12-20T05:16:07;8.60;35.60
728;DHT22;347;48.780;9.158;2023-12-20T05:18:34;8.70;35.60
728;DHT22;347;48.780;9.158;2023-12-20T05:21:00;8.80;35.80
728;DHT22;347;48.780;9.158;2023-12-20T05:23:26;9.00;35.40
728;DHT22;347;48.780;9.158;2023-12-20T05:25:51;9.10;33.60
728;DHT22;347;48.780;9.158;2023-12-20T05:28:17;9.10;33.70
728;DHT22;347;48.780;9.158;2023-12-20T05:30:42;8.70;34.10
728;DHT22;347;48.780;9.158;2023-12-20T05:33:08;8.50;36.00
728;DHT22;347;48.780;9.158;2023-12-20T05:35:34;8.50;37.00
728;DHT22;347;48.780;9.158;2023-12-20T05:38:00;8.60;36.50
728;DHT22;347;48.780;9.158;2023-12-20T05:40:26;8.50;36.50
728;DHT22;347;48.780;9.158;2023-12-20T05:42:51;8.40;36.70
728;DHT22;347;48.780;9.158;2023-12-20T05:45:17;8.40;37.30
728;DHT22;347;48.780;9.158;2023-12-20T05:47:42;8.40;37.10
728;DHT22;347;48.780;9.158;2023-12-20T05:50:08;8.50;37.70
728;DHT22;347;48.780;9.158;2023-12-20T05:52:34;8.30;37.70
728;DHT22;347;48.780;9.158;2023-12-20T05:55:00;8.20;38.50
728;DHT22;347;48.780;9.158;2023-12-20T05:57:27;8.30;39.10
728;DHT22;347;48.780;9.158;2023-12-20T05:59:52;8.40;39.00
728;DHT22;347;48.780;9.158;2023-12-20T06:02:18;8.60;39.00
728;DHT22;347;48.780;9.158;2023-12-20T06:04:44;8.50;38.40
728;DHT22;347;48.780;9.158;2023-12-20T06:07:13;8.50;39.10
728;DHT22;347;48.780;9.158;2023-12-20T06:09:39;8.70;39.50
728;DHT22;347;48.780;9.158;2023-12-20T06:12:06;8.60;38.10
728;DHT22;347;48.780;9.158;2023-12-20T06:14:32;8.60;38.50
728;DHT22;347;48.780;9.158;2023-12-20T06:16:58;8.40;38.60
728;DHT22;347;48.780;9.158;2023-12-20T06:19:23;8.50;40.20
728;DHT22;347;48.780;9.158;2023-12-20T06:21:49;8.60;40.30
728;DHT22;347;48.780;9.158;2023-12-20T06:24:14;8.80;39.70
728;DHT22;347;48.780;9.158;2023-12-20T06:26:40;8.90;39.30
728;DHT22;347;48.780;9.158;2023-12-20T06:29:06;9.00;39.30
728;DHT22;347;48.780;9.158;2023-12-20T06:31:32;9.10;38.60
728;DHT22;347;48.780;9.158;2023-12-20T06:33:58;9.00;37.80
728;DHT22;347;48.780;9.158;2023-12-20T06:36:25;8.90;38.00
728;DHT22;347;48.780;9.158;2023-12-20T06:38:51;8.90;37.70
728;DHT22;347;48.780;9.158;2023-12-20T06:41:17;8.90;38.40
728;DHT22;347;48.780;9.158;2023-12-20T06:43:43;8.90;37.90
728;DHT22;347;48.780;9.158;2023-12-20T06:46:09;8.90;37.50
728;DHT22;347;48.780;9.158;2023-12-20T06:48:35;9.00;38.00
728;DHT22;347;48.780;9.158;2023-12-20T06:51:01;9.00;37.20
728;DHT22;347;48.780;9.158;2023-12-20T06:53:29;9.10;36.90
728;DHT22;347;48.780;9.158;2023-12-20T06:55:55;9.20;36.90
728;DHT22;347;48.780;9.158;2023-12-20T06:58:22;9.20;35.90
728;DHT22;347;48.780;9.158;2023-12-20T07:00:48;9.10;36.40
728;DHT22;347;48.780;9.158;2023-12-20T07:03:13;8.90;36.60
728;DHT22;347;48.780;9.158;2023-12-20T07:05:39;8.80;37.80
728;DHT22;347;48.780;9.158;2023-12-20T07:08:06;8.70;38.10
728;DHT22;347;48.780;9.158;2023-12-20T07:10:32;8.80;37.60
728;DHT22;347;48.780;9.158;2023-12-20T07:12:58;8.70;37.40
728;DHT22;347;48.780;9.158;2023-12-20T07:15:23;8.60;38.10
728;DHT22;347;48.780;9.158;2023-12-20T07:17:49;8.80;38.30
728;DHT22;347;48.780;9.158;2023-12-20T07:20:15;9.00;37.70
728;DHT22;347;48.780;9.158;2023-12-20T07:22:40;9.20;37.10
728;DHT22;347;48.780;9.158;2023-12-20T07:25:07;9.20;35.70
728;DHT22;347;48.780;9.158;2023-12-20T07:27:32;9.20;36.70
728;DHT22;347;48.780;9.158;2023-12-20T07:29:58;9.00;36.70
728;DHT22;347;48.780;9.158;2023-12-20T07:32:24;9.10;36.50
728;DHT22;347;48.780;9.158;2023-12-20T07:34:49;9.10;36.80
728;DHT22;347;48.780;9.158;2023-12-20T07:37:15;9.10;36.70
728;DHT22;347;48.780;9.158;2023-12-20T07:39:41;8.70;36.10
728;DHT22;347;48.780;9.158;2023-12-20T07:42:08;8.70;36.00
728;DHT22;347;48.780;9.158;2023-12-20T07:44:34;8.50;36.20
728;DHT22;347;48.780;9.158;2023-12-20T07:47:01;8.40;36.90
728;DHT22;347;48.780;9.158;2023-12-20T07:49:27;8.30;35.90
728;DHT22;347;48.780;9.158;2023-12-20T07:51:52;8.10;36.10
728;DHT22;347;48.780;9.158;2023-12-20T07:54:18;7.90;36.70
728;DHT22;347;48.780;9.158;2023-12-20T07:56:43;7.70;38.30
728;DHT22;347;48.780;9.158;2023-12-20T07:59:09;7.90;38.00
728;DHT22;347;48.780;9.158;2023-12-20T08:01:35;7.80;36.50
728;DHT22;347;48.780;9.158;2023-12-20T08:04:00;7.90;36.00
728;DHT22;347;48.780;9.158;2023-12-20T08:06:26;8.00;36.00
728;DHT22;347;48.780;9.158;2023-12-20T08:08:51;7.80;36.10
728;DHT22;347;48.780;9.158;2023-12-20T08:11:17;8.00;36.40
728;DHT22;347;48.780;9.158;2023-12-20T08:13:43;8.00;35.50
728;DHT22;347;48.780;9.158;2023-12-20T08:16:08;7.80;35.50
728;DHT22;347;48.780;9.158;2023-12-20T08:18:34;8.00;35.20
728;DHT22;347;48.780;9.158;2023-12-20T08:21:00;7.90;35.10
728;DHT22;347;48.780;9.158;2023-12-20T08:23:26;7.80;35.60
728;DHT22;347;48.780;9.158;2023-12-20T08:25:52;7.70;35.20
728;DHT22;347;48.780;9.158;2023-12-20T08:28:18;7.90;34.50
728;DHT22;347;48.780;9.158;2023-12-20T08:30:43;7.80;33.30
728;DHT22;347;48.780;9.158;2023-12-20T08:33:09;7.80;32.90
728;DHT22;347;48.780;9.158;2023-12-20T08:35:41;8.00;32.40
728;DHT22;347;48.780;9.158;2023-12-20T08:38:07;8.10;32.90
728;DHT22;347;48.780;9.158;2023-12-20T08:40:32;8.20;31.00
728;DHT22;347;48.780;9.158;2023-12-20T08:42:58;8.10;31.90
728;DHT22;347;48.780;9.158;2023-12-20T08:45:23;7.90;30.70
728;DHT22;347;48.780;9.158;2023-12-20T08:47:50;8.00;31.30
728;DHT22;347;48.780;9.158;2023-12-20T08:50:15;8.20;31.00
728;DHT22;347;48.780;9.158;2023-12-20T08:52:41;8.10;30.90
728;DHT22;347;48.780;9.158;2023-12-20T08:55:07;7.90;30.70
728;DHT22;347;48.780;9.158;2023-12-20T08:57:33;8.10;30.90
728;DHT22;347;48.780;9.158;2023-12-20T08:59:59;8.10;30.90
728;DHT22;347;48.780;9.158;2023-12-20T09:02:24;8.20;31.00
728;DHT22;347;48.780;9.158;2023-12-20T09:04:50;8.30;31.00
728;DHT22;347;48.780;9.158;2023-12-20T09:07:26;8.50;30.40
728;DHT22;347;48.780;9.158;2023-12-20T09:09:52;8.50;29.80
728;DHT22;347;48.780;9.158;2023-12-20T09:12:21;8.10;30.30
728;DHT22;347;48.780;9.158;2023-12-20T09:14:49;8.00;30.80
728;DHT22;347;48.780;9.158;2023-12-20T09:17:18;7.90;31.40
728;DHT22;347;48.780;9.158;2023-12-20T09:19:44;7.90;32.30
728;DHT22;347;48.780;9.158;2023-12-20T09:22:10;7.90;32.20
728;DHT22;347;48.780;9.158;2023-12-20T09:24:36;8.10;32.30
728;DHT22;347;48.780;9.158;2023-12-20T09:27:02;8.10;31.70
728;DHT22;347;48.780;9.158;2023-12-20T09:29:29;8.40;32.40
728;DHT22;347;48.780;9.158;2023-12-20T09:31:54;8.20;31.00
728;DHT22;347;48.780;9.158;2023-12-20T09:34:20;8.20;31.00
728;DHT22;347;48.780;9.158;2023-12-20T09:36:46;8.10;29.80
728;DHT22;347;48.780;9.158;2023-12-20T09:39:17;8.00;28.20
728;DHT22;347;48.780;9.158;2023-12-20T09:41:45;7.90;28.80
728;DHT22;347;48.780;9.158;2023-12-20T09:44:17;7.80;29.10
728;DHT22;347;48.780;9.158;2023-12-20T09:46:49;7.90;28.70
728;DHT22;347;48.780;9.158;2023-12-20T09:49:17;8.00;28.80
728;DHT22;347;48.780;9.158;2023-12-20T09:51:45;8.00;28.70
728;DHT22;347;48.780;9.158;2023-12-20T09:54:16;7.90;28.30
728;DHT22;347;48.780;9.158;2023-12-20T09:56:42;7.80;28.90
728;DHT22;347;48.780;9.158;2023-12-20T09:59:08;7.90;28.10
728;DHT22;347;48.780;9.158;2023-12-20T10:01:35;7.80;27.90
728;DHT22;347;48.780;9.158;2023-12-20T10:04:06;7.70;28.30
728;DHT22;347;48.780;9.158;2023-12-20T10:06:40;7.80;28.20
728;DHT22;347;48.780;9.158;2023-12-20T10:09:06;7.80;27.50
728;DHT22;347;48.780;9.158;2023-12-20T10:11:32;7.70;27.50
728;DHT22;347;48.780;9.158;2023-12-20T10:14:01;7.70;26.80
728;DHT22;347;48.780;9.158;2023-12-20T10:16:27;7.70;27.00
728;DHT22;347;48.780;9.158;2023-12-20T10:18:54;7.90;27.50
728;DHT22;347;48.780;9.158;2023-12-20T10:21:20;8.00;27.30
728;DHT22;347;48.780;9.158;2023-12-20T10:23:46;8.00;26.50
728;DHT22;347;48.780;9.158;2023-12-20T10:26:22;8.10;26.30
728;DHT22;347;48.780;9.158;2023-12-20T10:28:53;8.20;26.10
728;DHT22;347;48.780;9.158;2023-12-20T10:31:29;8.10;25.90
728;DHT22;347;48.780;9.158;2023-12-20T10:33:59;8.30;25.00
728;DHT22;347;48.780;9.158;2023-12-20T10:36:33;8.50;24.10
728;DHT22;347;48.780;9.158;2023-12-20T10:38:59;8.50;24.60
728;DHT22;347;48.780;9.158;2023-12-20T10:41:32;8.40;25.40
728;DHT22;347;48.780;9.158;2023-12-20T10:43:58;8.30;26.20
728;DHT22;347;48.780;9.158;2023-12-20T10:46:25;8.30;25.50
728;DHT22;347;48.780;9.158;2023-12-20T10:48:53;8.40;26.00
728;DHT22;347;48.780;9.158;2023-12-20T10:51:20;8.30;26.40
728;DHT22;347;48.780;9.158;2023-12-20T10:53:47;8.10;26.20
728;DHT22;347;48.780;9.158;2023-12-20T10:56:16;7.90;27.00
728;DHT22;347;48.780;9.158;2023-12-20T10:58:43;7.90;27.50
728;DHT22;347;48.780;9.158;2023-12-20T11:01:14;8.10;26.90
728;DHT22;347;48.780;9.158;2023-12-20T11:03:48;8.20;26.80
728;DHT22;347;48.780;9.158;2023-12-20T11:11:35;8.40;23.70
728;DHT22;347;48.780;9.158;2023-12-20T11:14:06;8.30;24.90
728;DHT22;347;48.780;9.158;2023-12-20T11:16:38;8.30;24.10
728;DHT22;347;48.780;9.158;2023-12-20T11:19:06;8.50;24.60
728;DHT22;347;48.780;9.158;2023-12-20T11:21:32;8.30;25.00
728;DHT22;347;48.780;9.158;2023-12-20T11:23:59;8.10;25.20
728;DHT22;347;48.780;9.158;2023-12-20T11:26:28;8.20;25.20
728;DHT22;347;48.780;9.158;2023-12-20T11:29:29;8.00;25.50
728;DHT22;347;48.780;9.158;2023-12-20T11:31:55;8.00;25.80
728;DHT22;347;48.780;9.158;2023-12-20T11:34:20;8.00;25.90
728;DHT22;347;48.780;9.158;2023-12-20T11:36:46;7.90;24.80
728;DHT22;347;48.780;9.158;2023-12-20T11:39:12;8.00;25.40
728;DHT22;347;48.780;9.158;2023-12-20T11:41:44;7.90;25.20
728;DHT22;347;48.780;9.158;2023-12-20T11:44:10;7.80;24.20
728;DHT22;347;48.780;9.158;2023-12-20T11:46:37;7.80;24.10
728;DHT22;347;48.780;9.158;2023-12-20T11:49:02;7.80;24.00
728;DHT22;347;48.780;9.158;2023-12-20T11:51:28;7.70;24.50
728;DHT22;347;48.780;9.158;2023-12-20T11:53:54;7.60;24.80
728;DHT22;347;48.780;9.158;2023-12-20T11:56:19;7.60;24.80
728;DHT22;347;48.780;9.158;2023-12-20T11:58:45;7.70;24.70
728;DHT22;347;48.780;9.158;2023-12-20T12:01:11;7.80;24.30
728;DHT22;347;48.780;9.158;2023-12-20T12:03:37;7.70;23.70
728;DHT22;347;48.780;9.158;2023-12-20T12:06:02;7.60;24.40
728;DHT22;347;48.780;9.158;2023-12-20T12:08:30;7.60;24.10
728;DHT22;347;48.780;9.158;2023-12-20T12:10:55;7.60;24.90
728;DHT22;347;48.780;9.158;2023-12-20T12:13:21;7.50;24.60
728;DHT22;347;48.780;9.158;2023-12-20T12:15:48;7.60;24.70
728;DHT22;347;48.780;9.158;2023-12-20T12:18:17;7.70;23.50
728;DHT22;347;48.780;9.158;2023-12-20T12:20:43;7.70;23.90
728;DHT22;347;48.780;9.158;2023-12-20T12:23:09;7.80;24.30
728;DHT22;347;48.780;9.158;2023-12-20T12:25:35;7.90;24.70
728;DHT22;347;48.780;9.158;2023-12-20T12:28:02;7.90;23.10
728;DHT22;347;48.780;9.158;2023-12-20T12:30:28;7.80;23.50
728;DHT22;347;48.780;9.158;2023-12-20T12:32:56;7.90;24.10
728;DHT22;347;48.780;9.158;2023-12-20T12:35:21;7.90;23.80
728;DHT22;347;48.780;9.158;2023-12-20T12:37:47;8.00;23.00
728;DHT22;347;48.780;9.158;2023-12-20T12:40:17;8.10;23.20
728;DHT22;347;48.780;9.158;2023-12-20T12:42:45;8.20;22.80
728;DHT22;347;48.780;9.158;2023-12-20T12:45:12;8.20;22.80
728;DHT22;347;48.780;9.158;2023-12-20T12:47:38;8.20;22.50
728;DHT22;347;48.780;9.158;2023-12-20T12:50:04;8.30;22.30
728;DHT22;347;48.780;9.158;2023-12-20T12:52:33;8.30;23.40
728;DHT22;347;48.780;9.158;2023-12-20T12:54:59;8.40;22.60
728;DHT22;347;48.780;9.158;2023-12-20T12:57:24;8.50;22.60
728;DHT22;347;48.780;9.158;2023-12-20T12:59:51;8.60;22.40
728;DHT22;347;48.780;9.158;2023-12-20T13:02:17;8.70;21.80
728;DHT22;347;48.780;9.158;2023-12-20T13:04:43;8.70;21.60
728;DHT22;347;48.780;9.158;2023-12-20T13:07:10;8.50;21.40
728;DHT22;347;48.780;9.158;2023-12-20T13:09:39;8.50;21.40
728;DHT22;347;48.780;9.158;2023-12-20T13:12:06;8.50;21.40
728;DHT22;347;48.780;9.158;2023-12-20T13:14:34;8.40;21.50
728;DHT22;347;48.780;9.158;2023-12-20T13:17:01;8.30;21.50
728;DHT22;347;48.780;9.158;2023-12-20T13:19:26;8.50;21.80
728;DHT22;347;48.780;9.158;2023-12-20T13:21:52;8.60;21.20
728;DHT22;347;48.780;9.158;2023-12-20T13:24:18;8.50;21.40
728;DHT22;347;48.780;9.158;2023-12-20T13:26:44;8.40;21.50
728;DHT22;347;48.780;9.158;2023-12-20T13:29:10;8.30;22.00
728;DHT22;347;48.780;9.158;2023-12-20T13:31:35;8.40;22.30
728;DHT22;347;48.780;9.158;2023-12-20T13:34:02;8.60;22.20
728;DHT22;347;48.780;9.158;2023-12-20T13:36:27;8.70;21.90
728;DHT22;347;48.780;9.158;2023-12-20T13:38:53;8.90;21.00
728;DHT22;347;48.780;9.158;2023-12-20T13:41:19;8.70;20.40
728;DHT22;347;48.780;9.158;2023-12-20T13:43:45;8.60;21.20
728;DHT22;347;48.780;9.158;2023-12-20T13:46:11;8.50;20.60
728;DHT22;347;48.780;9.158;2023-12-20T13:48:36;8.40;21.20
728;DHT22;347;48.780;9.158;2023-12-20T13:51:03;8.40;21.40
728;DHT22;347;48.780;9.158;2023-12-20T13:53:29;8.50;21.40
728;DHT22;347;48.780;9.158;2023-12-20T13:55:54;8.40;21.40
728;DHT22;347;48.780;9.158;2023-12-20T13:58:20;8.40;21.90
728;DHT22;347;48.780;9.158;2023-12-20T14:00:46;8.30;21.90
728;DHT22;347;48.780;9.158;2023-12-20T14:03:11;8.20;22.10
728;DHT22;347;48.780;9.158;2023-12-20T14:05:37;8.20;22.30
728;DHT22;347;48.780;9.158;2023-12-20T14:08:03;8.10;22.70
728;DHT22;347;48.780;9.158;2023-12-20T14:10:29;8.10;23.00
728;DHT22;347;48.780;9.158;2023-12-20T14:12:55;8.10;23.10
728;DHT22;347;48.780;9.158;2023-12-20T14:15:21;8.20;22.80
728;DHT22;347;48.780;9.158;2023-12-20T14:17:46;8.20;22.80
728;DHT22;347;48.780;9.158;2023-12-20T14:20:13;8.20;23.50
728;DHT22;347;48.780;9.158;2023-12-20T14:22:38;8.20;23.90
728;DHT22;347;48.780;9.158;2023-12-20T14:25:11;8.30;23.30
728;DHT22;347;48.780;9.158;2023-12-20T14:27:38;8.30;24.20
728;DHT22;347;48.780;9.158;2023-12-20T14:30:04;8.10;24.00
728;DHT22;347;48.780;9.158;2023-12-20T14:32:31;8.00;24.60
728;DHT22;347;48.780;9.158;2023-12-20T14:34:56;8.00;24.80
728;DHT22;347;48.780;9.158;2023-12-20T14:37:22;7.90;25.30
728;DHT22;347;48.780;9.158;2023-12-20T14:39:48;7.80;25.70
728;DHT22;347;48.780;9.158;2023-12-20T14:42:13;7.60;26.40
728;DHT22;347;48.780;9.158;2023-12-20T14:44:40;7.50;27.00
728;DHT22;347;48.780;9.158;2023-12-20T14:47:06;7.60;27.80
728;DHT22;347;48.780;9.158;2023-12-20T14:49:32;7.50;28.20
728;DHT22;347;48.780;9.158;2023-12-20T14:51:58;7.50;28.40
728;DHT22;347;48.780;9.158;2023-12-20T14:54:24;7.50;29.00
728;DHT22;347;48.780;9.158;2023-12-20T14:56:49;7.40;28.70
728;DHT22;347;48.780;9.158;2023-12-20T14:59:15;7.60;29.10
728;DHT22;347;48.780;9.158;2023-12-20T15:01:41;7.70;28.40
728;DHT22;347;48.780;9.158;2023-12-20T15:04:07;7.80;28.00
728;DHT22;347;48.780;9.158;2023-12-20T15:06:33;7.90;27.80
728;DHT22;347;48.780;9.158;2023-12-20T15:08:59;7.90;27.10
728;DHT22;347;48.780;9.158;2023-12-20T15:11:25;7.80;27.60
728;DHT22;347;48.780;9.158;2023-12-20T15:13:52;7.70;27.50
728;DHT22;347;48.780;9.158;2023-12-20T15:16:20;7.60;27.80
728;DHT22;347;48.780;9.158;2023-12-20T15:18:46;7.70;28.40
728;DHT22;347;48.780;9.158;2023-12-20T15:21:12;7.70;28.60
728;DHT22;347;48.780;9.158;2023-12-20T15:23:37;7.60;27.70
728;DHT22;347;48.780;9.158;2023-12-20T15:26:03;7.50;28.30
728;DHT22;347;48.780;9.158;2023-12-20T15:28:30;7.40;29.40
728;DHT22;347;48.780;9.158;2023-12-20T15:30:55;7.50;29.70
728;DHT22;347;48.780;9.158;2023-12-20T15:33:22;7.40;29.10
728;DHT22;347;48.780;9.158;2023-12-20T15:35:48;7.40;29.00
728;DHT22;347;48.780;9.158;2023-12-20T15:38:13;7.40;29.70
728;DHT22;347;48.780;9.158;2023-12-20T15:40:39;7.40;29.50
728;DHT22;347;48.780;9.158;2023-12-20T15:43:05;7.40;29.50
728;DHT22;347;48.780;9.158;2023-12-20T15:45:30;7.40;29.40
728;DHT22;347;48.780;9.158;2023-12-20T15:47:56;7.40;30.30
728;DHT22;347;48.780;9.158;2023-12-20T15:50:22;7.30;30.00
728;DHT22;347;48.780;9.158;2023-12-20T15:52:48;7.30;29.80
728;DHT22;347;48.780;9.158;2023-12-20T15:55:13;7.40;29.80
728;DHT22;347;48.780;9.158;2023-12-20T15:57:39;7.40;29.90
728;DHT22;347;48.780;9.158;2023-12-20T16:00:05;7.40;30.00
728;DHT22;347;48.780;9.158;2023-12-20T16:02:31;7.30;29.60
728;DHT22;347;48.780;9.158;2023-12-20T16:04:57;7.40;30.30
728;DHT22;347;48.780;9.158;2023-12-20T16:07:22;7.40;30.30
728;DHT22;347;48.780;9.158;2023-12-20T16:09:48;7.40;29.90
728;DHT22;347;48.780;9.158;2023-12-20T16:12:14;7.40;29.90
728;DHT22;347;48.780;9.158;2023-12-20T16:14:39;7.20;30.10
728;DHT22;347;48.780;9.158;2023-12-20T16:17:05;7.20;30.30
728;DHT22;347;48.780;9.158;2023-12-20T16:19:31;7.00;30.70
728;DHT22;347;48.780;9.158;2023-12-20T16:21:56;7.00;30.60
728;DHT22;347;48.780;9.158;2023-12-20T16:24:22;7.00;31.40
728;DHT22;347;48.780;9.158;2023-12-20T16:26:48;7.00;31.70
728;DHT22;347;48.780;9.158;2023-12-20T16:29:13;7.00;31.60
728;DHT22;347;48.780;9.158;2023-12-20T16:31:39;7.00;32.00
728;DHT22;347;48.780;9.158;2023-12-20T16:34:05;7.00;32.20
728;DHT22;347;48.780;9.158;2023-12-20T16:36:52;7.00;32.00
728;DHT22;347;48.780;9.158;2023-12-20T16:39:20;7.00;32.20
728;DHT22;347;48.780;9.158;2023-12-20T16:41:47;7.00;32.60
728;DHT22;347;48.780;9.158;2023-12-20T16:44:12;7.00;31.10
728;DHT22;347;48.780;9.158;2023-12-20T16:46:38;6.90;31.70
728;DHT22;347;48.780;9.158;2023-12-20T16:49:04;6.90;31.80
728;DHT22;347;48.780;9.158;2023-12-20T16:51:29;7.00;31.60